sensor_id;sensor_type;location;lat;lon;timestamp;temperature;humidity
9760;DHT22;4919;48.792;9.202;2023-04-03T00:02:05;1.00;1.00
9760;DHT22;4919;48.792;9.202;2023-04-03T00:04:50;1.00;1.00
9760;DHT22;4919;48.792;9.202;2023-04-03T00:07:35;1.00;1.00
9760;DHT22;4919;48.792;9.202;2023-04-03T00:10:20;1.00;1.00
9760;DHT22;4919;48.792;9.202;2023-04-03T00:13:06;0.90;1.00
9760;DHT22;4919;48.792;9.202;2023-04-03T00:15:51;0.90;1.00
9760;DHT22;4919;48.792;9.202;2023-04-03T00:18:37;0.90;1.00
9760;DHT22;4919;48.792;9.202;2023-04-03T00:21:22;0.80;1.00
9760;DHT22;4919;48.792;9.202;2023-04-03T00:24:07;0.80;1.00
9760;DHT22;4919;48.792;9.202;2023-04-03T00:26:52;0.80;1.00
9760;DHT22;4919;48.792;9.202;2023-04-03T00:29:37;0.80;1.00
9760;DHT22;4919;48.792;9.202;2023-04-03T00:32:22;0.70;1.00
9760;DHT22;4919;48.792;9.202;2023-04-03T00:35:07;0.70;1.00
9760;DHT22;4919;48.792;9.202;2023-04-03T00:37:53;0.70;1.00
9760;DHT22;4919;48.792;9.202;2023-04-03T00:40:42;0.70;1.00
9760;DHT22;4919;48.792;9.202;2023-04-03T00:43:27;0.70;1.00
9760;DHT22;4919;48.792;9.202;2023-04-03T00:46:12;0.70;1.00
9760;DHT22;4919;48.792;9.202;2023-04-03T00:48:57;0.70;1.00
9760;DHT22;4919;48.792;9.202;2023-04-03T00:51:42;0.70;1.00
9760;DHT22;4919;48.792;9.202;2023-04-03T00:54:27;0.70;1.00
9760;DHT22;4919;48.792;9.202;2023-04-03T00:57:12;0.70;1.00
9760;DHT22;4919;48.792;9.202;2023-04-03T01:00:01;0.70;1.00
9760;DHT22;4919;48.792;9.202;2023-04-03T01:02:47;0.60;1.00
9760;DHT22;4919;48.792;9.202;2023-04-03T01:05:31;0.60;1.00
9760;DHT22;4919;48.792;9.202;2023-04-03T01:08:16;0.50;1.00
9760;DHT22;4919;48.792;9.202;2023-04-03T01:11:02;0.50;1.00
9760;DHT22;4919;48.792;9.202;2023-04-03T01:13:47;0.50;1.00
9760;DHT22;4919;48.792;9.202;2023-04-03T01:16:32;0.50;1.00
9760;DHT22;4919;48.792;9.202;2023-04-03T01:19:17;0.40;1.00
9760;DHT22;4919;48.792;9.202;2023-04-03T01:22:19;0.40;1.00
9760;DHT22;4919;48.792;9.202;2023-04-03T01:25:08;0.40;1.00
9760;DHT22;4919;48.792;9.202;2023-04-03T01:27:53;0.40;1.00
9760;DHT22;4919;48.792;9.202;2023-04-03T01:33:56;0.20;1.00
9760;DHT22;4919;48.792;9.202;2023-04-03T01:36:41;0.20;1.00
9760;DHT22;4919;48.792;9.202;2023-04-03T01:39:26;0.20;1.00
9760;DHT22;4919;48.792;9.202;2023-04-03T01:42:11;0.20;1.00
9760;DHT22;4919;48.792;9.202;2023-04-03T01:44:56;0.10;1.00
9760;DHT22;4919;48.792;9.202;2023-04-03T01:47:40;0.10;1.00
9760;DHT22;4919;48.792;9.202;2023-04-03T01:50:25;0.10;1.00
9760;DHT22;4919;48.792;9.202;2023-04-03T01:53:10;0.10;1.00
9760;DHT22;4919;48.792;9.202;2023-04-03T01:55:55;0.20;1.00
9760;DHT22;4919;48.792;9.202;2023-04-03T01:58:40;0.10;1.00
9760;DHT22;4919;48.792;9.202;2023-04-03T02:01:25;0.10;1.00
9760;DHT22;4919;48.792;9.202;2023-04-03T02:04:11;0.10;1.00
9760;DHT22;4919;48.792;9.202;2023-04-03T02:06:55;0.10;1.00
9760;DHT22;4919;48.792;9.202;2023-04-03T02:09:40;0.10;1.00
9760;DHT22;4919;48.792;9.202;2023-04-03T02:12:25;0.10;1.00
9760;DHT22;4919;48.792;9.202;2023-04-03T02:15:10;0.10;1.00
9760;DHT22;4919;48.792;9.202;2023-04-03T02:17:55;0.10;1.00
9760;DHT22;4919;48.792;9.202;2023-04-03T02:20:40;0.10;1.00
9760;DHT22;4919;48.792;9.202;2023-04-03T02:23:25;0.10;1.00
9760;DHT22;4919;48.792;9.202;2023-04-03T02:26:11;0.20;1.00
9760;DHT22;4919;48.792;9.202;2023-04-03T02:28:56;0.20;1.00
9760;DHT22;4919;48.792;9.202;2023-04-03T02:31:41;0.20;1.00
9760;DHT22;4919;48.792;9.202;2023-04-03T02:34:26;0.20;1.00
9760;DHT22;4919;48.792;9.202;2023-04-03T02:37:11;0.20;1.00
9760;DHT22;4919;48.792;9.202;2023-04-03T02:39:56;0.10;1.00
9760;DHT22;4919;48.792;9.202;2023-04-03T02:42:40;0.10;1.00
9760;DHT22;4919;48.792;9.202;2023-04-03T02:45:25;0.00;1.00
9760;DHT22;4919;48.792;9.202;2023-04-03T02:48:10;0.10;1.00
9760;DHT22;4919;48.792;9.202;2023-04-03T02:50:55;0.00;1.00
9760;DHT22;4919;48.792;9.202;2023-04-03T02:53:40;0.00;1.00
9760;DHT22;4919;48.792;9.202;2023-04-03T02:56:25;0.10;1.00
9760;DHT22;4919;48.792;9.202;2023-04-03T02:59:09;0.00;1.00
9760;DHT22;4919;48.792;9.202;2023-04-03T03:01:55;0.10;1.00
9760;DHT22;4919;48.792;9.202;2023-04-03T03:04:39;0.10;1.00
9760;DHT22;4919;48.792;9.202;2023-04-03T03:07:24;0.00;1.00
9760;DHT22;4919;48.792;9.202;2023-04-03T03:10:09;0.10;1.00
9760;DHT22;4919;48.792;9.202;2023-04-03T03:12:54;0.10;1.00
9760;DHT22;4919;48.792;9.202;2023-04-03T03:15:39;0.10;1.00
9760;DHT22;4919;48.792;9.202;2023-04-03T03:18:24;0.10;1.00
9760;DHT22;4919;48.792;9.202;2023-04-03T03:21:09;0.10;1.00
9760;DHT22;4919;48.792;9.202;2023-04-03T03:23:54;0.20;1.00
9760;DHT22;4919;48.792;9.202;2023-04-03T03:26:39;0.10;1.00
9760;DHT22;4919;48.792;9.202;2023-04-03T03:29:24;0.20;1.00
9760;DHT22;4919;48.792;9.202;2023-04-03T03:32:09;0.10;1.00
9760;DHT22;4919;48.792;9.202;2023-04-03T03:34:54;0.10;1.00
9760;DHT22;4919;48.792;9.202;2023-04-03T03:37:39;0.10;1.00
9760;DHT22;4919;48.792;9.202;2023-04-03T03:40:24;0.10;1.00
9760;DHT22;4919;48.792;9.202;2023-04-03T03:43:08;0.10;1.00
9760;DHT22;4919;48.792;9.202;2023-04-03T03:45:54;0.10;1.00
9760;DHT22;4919;48.792;9.202;2023-04-03T03:48:39;0.10;1.00
9760;DHT22;4919;48.792;9.202;2023-04-03T03:51:23;0.10;1.00
9760;DHT22;4919;48.792;9.202;2023-04-03T03:54:09;0.10;1.00
9760;DHT22;4919;48.792;9.202;2023-04-03T03:56:54;0.10;1.00
9760;DHT22;4919;48.792;9.202;2023-04-03T03:59:39;0.10;1.00
9760;DHT22;4919;48.792;9.202;2023-04-03T04:02:23;0.00;1.00
9760;DHT22;4919;48.792;9.202;2023-04-03T04:05:09;0.10;1.00
9760;DHT22;4919;48.792;9.202;2023-04-03T04:07:53;0.00;1.00
9760;DHT22;4919;48.792;9.202;2023-04-03T04:10:38;0.00;1.00
9760;DHT22;4919;48.792;9.202;2023-04-03T04:13:23;0.00;1.00
9760;DHT22;4919;48.792;9.202;2023-04-03T04:16:08;0.00;1.00
9760;DHT22;4919;48.792;9.202;2023-04-03T04:18:53;0.00;1.00
9760;DHT22;4919;48.792;9.202;2023-04-03T04:21:38;-0.10;1.00
9760;DHT22;4919;48.792;9.202;2023-04-03T04:24:23;-0.10;1.00
9760;DHT22;4919;48.792;9.202;2023-04-03T04:27:07;-0.20;1.00
9760;DHT22;4919;48.792;9.202;2023-04-03T04:29:52;-0.20;1.00
9760;DHT22;4919;48.792;9.202;2023-04-03T04:32:37;-0.20;1.00
9760;DHT22;4919;48.792;9.202;2023-04-03T04:35:22;-0.20;1.00
9760;DHT22;4919;48.792;9.202;2023-04-03T04:38:07;-0.20;1.00
9760;DHT22;4919;48.792;9.202;2023-04-03T04:40:52;-0.20;1.00
9760;DHT22;4919;48.792;9.202;2023-04-03T04:43:37;-0.20;1.00
9760;DHT22;4919;48.792;9.202;2023-04-03T04:46:22;-0.10;1.00
9760;DHT22;4919;48.792;9.202;2023-04-03T04:49:07;-0.20;1.00
9760;DHT22;4919;48.792;9.202;2023-04-03T04:51:51;-0.10;1.00
9760;DHT22;4919;48.792;9.202;2023-04-03T04:54:36;-0.20;1.00
9760;DHT22;4919;48.792;9.202;2023-04-03T04:57:21;-0.10;1.00
9760;DHT22;4919;48.792;9.202;2023-04-03T05:00:06;-0.10;1.00
9760;DHT22;4919;48.792;9.202;2023-04-03T05:02:51;0.00;1.00
9760;DHT22;4919;48.792;9.202;2023-04-03T05:05:36;0.00;1.00
9760;DHT22;4919;48.792;9.202;2023-04-03T05:08:21;0.00;1.00
9760;DHT22;4919;48.792;9.202;2023-04-03T05:11:06;0.10;1.00
9760;DHT22;4919;48.792;9.202;2023-04-03T05:13:51;0.10;1.00
9760;DHT22;4919;48.792;9.202;2023-04-03T05:16:36;0.20;1.00
9760;DHT22;4919;48.792;9.202;2023-04-03T05:19:21;0.20;1.00
9760;DHT22;4919;48.792;9.202;2023-04-03T05:22:06;0.30;1.00
9760;DHT22;4919;48.792;9.202;2023-04-03T05:24:51;0.40;1.00
9760;DHT22;4919;48.792;9.202;2023-04-03T05:27:36;0.40;1.00
9760;DHT22;4919;48.792;9.202;2023-04-03T05:30:21;0.40;1.00
9760;DHT22;4919;48.792;9.202;2023-04-03T05:33:05;0.50;1.00
9760;DHT22;4919;48.792;9.202;2023-04-03T05:35:50;0.60;1.00
9760;DHT22;4919;48.792;9.202;2023-04-03T05:38:35;0.70;1.00
9760;DHT22;4919;48.792;9.202;2023-04-03T05:41:20;1.10;1.00
9760;DHT22;4919;48.792;9.202;2023-04-03T05:44:05;2.00;1.00
9760;DHT22;4919;48.792;9.202;2023-04-03T05:46:50;2.50;1.00
9760;DHT22;4919;48.792;9.202;2023-04-03T05:49:35;2.70;1.00
9760;DHT22;4919;48.792;9.202;2023-04-03T05:52:27;2.50;1.00
9760;DHT22;4919;48.792;9.202;2023-04-03T05:55:12;2.70;1.00
9760;DHT22;4919;48.792;9.202;2023-04-03T05:57:57;2.50;1.00
9760;DHT22;4919;48.792;9.202;2023-04-03T06:00:41;2.60;1.00
9760;DHT22;4919;48.792;9.202;2023-04-03T06:03:26;2.90;1.00
9760;DHT22;4919;48.792;9.202;2023-04-03T06:06:13;3.20;1.00
9760;DHT22;4919;48.792;9.202;2023-04-03T06:08:58;3.00;1.00
9760;DHT22;4919;48.792;9.202;2023-04-03T06:11:43;3.00;1.00
9760;DHT22;4919;48.792;9.202;2023-04-03T06:14:28;3.10;1.00
9760;DHT22;4919;48.792;9.202;2023-04-03T06:17:14;2.90;1.00
9760;DHT22;4919;48.792;9.202;2023-04-03T06:19:59;2.90;1.00
9760;DHT22;4919;48.792;9.202;2023-04-03T06:22:43;2.80;1.00
9760;DHT22;4919;48.792;9.202;2023-04-03T06:25:28;2.70;1.00
9760;DHT22;4919;48.792;9.202;2023-04-03T06:28:13;2.70;1.00
9760;DHT22;4919;48.792;9.202;2023-04-03T06:30:58;2.80;1.00
9760;DHT22;4919;48.792;9.202;2023-04-03T06:33:43;2.70;1.00
9760;DHT22;4919;48.792;9.202;2023-04-03T06:36:28;2.60;1.00
9760;DHT22;4919;48.792;9.202;2023-04-03T06:39:15;2.60;1.00
9760;DHT22;4919;48.792;9.202;2023-04-03T06:42:01;2.80;1.00
9760;DHT22;4919;48.792;9.202;2023-04-03T06:44:46;2.70;1.00
9760;DHT22;4919;48.792;9.202;2023-04-03T06:47:30;2.80;1.00
9760;DHT22;4919;48.792;9.202;2023-04-03T06:50:15;2.90;1.00
9760;DHT22;4919;48.792;9.202;2023-04-03T06:53:00;2.80;1.00
9760;DHT22;4919;48.792;9.202;2023-04-03T06:55:45;2.90;1.00
9760;DHT22;4919;48.792;9.202;2023-04-03T06:58:30;2.80;1.00
9760;DHT22;4919;48.792;9.202;2023-04-03T07:01:16;3.00;1.00
9760;DHT22;4919;48.792;9.202;2023-04-03T07:04:00;2.90;1.00
9760;DHT22;4919;48.792;9.202;2023-04-03T07:06:46;2.90;1.00
9760;DHT22;4919;48.792;9.202;2023-04-03T07:09:31;3.00;1.00
9760;DHT22;4919;48.792;9.202;2023-04-03T07:12:16;3.00;1.00
9760;DHT22;4919;48.792;9.202;2023-04-03T07:15:00;2.90;1.00
9760;DHT22;4919;48.792;9.202;2023-04-03T07:17:45;2.90;1.00
9760;DHT22;4919;48.792;9.202;2023-04-03T07:20:30;3.20;1.00
9760;DHT22;4919;48.792;9.202;2023-04-03T07:23:15;3.30;1.00
9760;DHT22;4919;48.792;9.202;2023-04-03T07:26:00;3.30;1.00
9760;DHT22;4919;48.792;9.202;2023-04-03T07:28:45;3.50;1.00
9760;DHT22;4919;48.792;9.202;2023-04-03T07:31:30;3.60;1.00
9760;DHT22;4919;48.792;9.202;2023-04-03T07:34:15;3.60;1.00
9760;DHT22;4919;48.792;9.202;2023-04-03T07:36:59;3.60;1.00
9760;DHT22;4919;48.792;9.202;2023-04-03T07:39:44;3.40;1.00
9760;DHT22;4919;48.792;9.202;2023-04-03T07:42:29;3.40;1.00
9760;DHT22;4919;48.792;9.202;2023-04-03T07:45:14;3.60;1.00
9760;DHT22;4919;48.792;9.202;2023-04-03T07:47:59;3.70;1.00
9760;DHT22;4919;48.792;9.202;2023-04-03T07:50:44;3.80;1.00
9760;DHT22;4919;48.792;9.202;2023-04-03T07:53:29;3.70;1.00
9760;DHT22;4919;48.792;9.202;2023-04-03T07:56:14;3.70;1.00
9760;DHT22;4919;48.792;9.202;2023-04-03T07:58:59;3.50;1.00
9760;DHT22;4919;48.792;9.202;2023-04-03T08:01:43;3.50;1.00
9760;DHT22;4919;48.792;9.202;2023-04-03T08:04:28;3.20;1.00
9760;DHT22;4919;48.792;9.202;2023-04-03T08:07:13;3.20;1.00
9760;DHT22;4919;48.792;9.202;2023-04-03T08:09:58;3.00;1.00
9760;DHT22;4919;48.792;9.202;2023-04-03T08:12:46;3.20;1.00
9760;DHT22;4919;48.792;9.202;2023-04-03T08:15:31;3.30;1.00
9760;DHT22;4919;48.792;9.202;2023-04-03T08:18:16;3.50;1.00
9760;DHT22;4919;48.792;9.202;2023-04-03T08:21:05;3.60;1.00
9760;DHT22;4919;48.792;9.202;2023-04-03T08:23:51;4.00;1.00
9760;DHT22;4919;48.792;9.202;2023-04-03T08:26:36;4.40;1.00
9760;DHT22;4919;48.792;9.202;2023-04-03T08:29:21;4.30;1.00
9760;DHT22;4919;48.792;9.202;2023-04-03T08:32:06;4.20;1.00
9760;DHT22;4919;48.792;9.202;2023-04-03T08:34:50;4.40;1.00
9760;DHT22;4919;48.792;9.202;2023-04-03T08:37:36;4.10;1.00
9760;DHT22;4919;48.792;9.202;2023-04-03T08:40:22;4.00;1.00
9760;DHT22;4919;48.792;9.202;2023-04-03T08:46:11;3.90;1.00
9760;DHT22;4919;48.792;9.202;2023-04-03T08:48:59;4.00;1.00
9760;DHT22;4919;48.792;9.202;2023-04-03T08:51:47;4.00;1.00
9760;DHT22;4919;48.792;9.202;2023-04-03T08:54:51;3.80;1.00
9760;DHT22;4919;48.792;9.202;2023-04-03T08:57:40;3.70;1.00
9760;DHT22;4919;48.792;9.202;2023-04-03T09:00:28;3.90;1.00
9760;DHT22;4919;48.792;9.202;2023-04-03T09:03:17;3.90;1.00
9760;DHT22;4919;48.792;9.202;2023-04-03T09:06:10;3.90;1.00
9760;DHT22;4919;48.792;9.202;2023-04-03T09:15:22;4.20;1.00
9760;DHT22;4919;48.792;9.202;2023-04-03T09:18:19;4.40;1.00
9760;DHT22;4919;48.792;9.202;2023-04-03T09:21:13;4.20;1.00
9760;DHT22;4919;48.792;9.202;2023-04-03T09:24:01;4.10;1.00
9760;DHT22;4919;48.792;9.202;2023-04-03T09:27:00;4.10;1.00
9760;DHT22;4919;48.792;9.202;2023-04-03T09:29:46;3.90;1.00
9760;DHT22;4919;48.792;9.202;2023-04-03T09:32:34;3.90;1.00
9760;DHT22;4919;48.792;9.202;2023-04-03T09:35:24;4.10;1.00
9760;DHT22;4919;48.792;9.202;2023-04-03T09:41:07;4.20;1.00
9760;DHT22;4919;48.792;9.202;2023-04-03T09:43:58;4.70;1.00
9760;DHT22;4919;48.792;9.202;2023-04-03T09:46:43;4.70;1.00
9760;DHT22;4919;48.792;9.202;2023-04-03T09:49:28;4.80;1.00
9760;DHT22;4919;48.792;9.202;2023-04-03T09:52:26;5.40;1.00
9760;DHT22;4919;48.792;9.202;2023-04-03T09:55:15;5.70;1.00
9760;DHT22;4919;48.792;9.202;2023-04-03T09:58:04;5.70;1.00
9760;DHT22;4919;48.792;9.202;2023-04-03T10:00:57;6.10;1.00
9760;DHT22;4919;48.792;9.202;2023-04-03T10:03:43;6.30;1.00
9760;DHT22;4919;48.792;9.202;2023-04-03T10:06:32;7.00;1.00
9760;DHT22;4919;48.792;9.202;2023-04-03T10:09:27;6.30;1.00
9760;DHT22;4919;48.792;9.202;2023-04-03T10:12:12;6.30;1.00
9760;DHT22;4919;48.792;9.202;2023-04-03T10:15:12;6.60;1.00
9760;DHT22;4919;48.792;9.202;2023-04-03T10:18:01;6.80;1.00
9760;DHT22;4919;48.792;9.202;2023-04-03T10:20:48;6.50;1.00
9760;DHT22;4919;48.792;9.202;2023-04-03T10:23:45;6.30;1.00
9760;DHT22;4919;48.792;9.202;2023-04-03T10:32:24;5.90;1.00
9760;DHT22;4919;48.792;9.202;2023-04-03T10:35:20;5.50;1.00
9760;DHT22;4919;48.792;9.202;2023-04-03T10:41:39;5.10;1.00
9760;DHT22;4919;48.792;9.202;2023-04-03T10:45:08;5.20;1.00
9760;DHT22;4919;48.792;9.202;2023-04-03T10:48:33;5.30;1.00
9760;DHT22;4919;48.792;9.202;2023-04-03T10:51:36;5.30;1.00
9760;DHT22;4919;48.792;9.202;2023-04-03T10:54:39;5.60;1.00
9760;DHT22;4919;48.792;9.202;2023-04-03T10:57:25;5.80;1.00
9760;DHT22;4919;48.792;9.202;2023-04-03T11:00:23;5.60;1.00
9760;DHT22;4919;48.792;9.202;2023-04-03T11:06:13;5.40;1.00
9760;DHT22;4919;48.792;9.202;2023-04-03T11:09:07;5.40;1.00
9760;DHT22;4919;48.792;9.202;2023-04-03T11:12:05;5.30;1.00
9760;DHT22;4919;48.792;9.202;2023-04-03T11:14:51;5.40;1.00
9760;DHT22;4919;48.792;9.202;2023-04-03T11:17:43;5.40;1.00
9760;DHT22;4919;48.792;9.202;2023-04-03T11:20:31;5.60;1.00
9760;DHT22;4919;48.792;9.202;2023-04-03T11:23:24;5.60;1.00
9760;DHT22;4919;48.792;9.202;2023-04-03T11:26:22;5.60;1.00
9760;DHT22;4919;48.792;9.202;2023-04-03T11:29:14;5.50;1.00
9760;DHT22;4919;48.792;9.202;2023-04-03T11:32:16;5.40;1.00
9760;DHT22;4919;48.792;9.202;2023-04-03T11:35:09;5.40;1.00
9760;DHT22;4919;48.792;9.202;2023-04-03T11:37:55;5.50;1.00
9760;DHT22;4919;48.792;9.202;2023-04-03T11:40:41;5.50;1.00
9760;DHT22;4919;48.792;9.202;2023-04-03T11:43:32;5.40;1.00
9760;DHT22;4919;48.792;9.202;2023-04-03T11:46:17;5.60;1.00
9760;DHT22;4919;48.792;9.202;2023-04-03T11:49:03;5.80;1.00
9760;DHT22;4919;48.792;9.202;2023-04-03T11:51:48;5.70;1.00
9760;DHT22;4919;48.792;9.202;2023-04-03T11:54:47;5.50;1.00
9760;DHT22;4919;48.792;9.202;2023-04-03T12:08:58;6.00;1.00
9760;DHT22;4919;48.792;9.202;2023-04-03T12:11:43;6.20;1.00
9760;DHT22;4919;48.792;9.202;2023-04-03T12:14:28;6.20;1.00
9760;DHT22;4919;48.792;9.202;2023-04-03T12:17:25;6.40;1.00
9760;DHT22;4919;48.792;9.202;2023-04-03T12:23:34;6.00;1.00
9760;DHT22;4919;48.792;9.202;2023-04-03T12:26:22;5.90;1.00
9760;DHT22;4919;48.792;9.202;2023-04-03T12:29:19;5.80;1.00
9760;DHT22;4919;48.792;9.202;2023-04-03T12:32:26;5.90;1.00
9760;DHT22;4919;48.792;9.202;2023-04-03T12:36:04;5.80;1.00
9760;DHT22;4919;48.792;9.202;2023-04-03T12:39:16;5.70;1.00
9760;DHT22;4919;48.792;9.202;2023-04-03T12:48:02;5.60;1.00
9760;DHT22;4919;48.792;9.202;2023-04-03T12:50:49;5.50;1.00
9760;DHT22;4919;48.792;9.202;2023-04-03T12:53:35;5.70;1.00
9760;DHT22;4919;48.792;9.202;2023-04-03T12:56:31;5.90;1.00
9760;DHT22;4919;48.792;9.202;2023-04-03T12:59:20;5.90;1.00
9760;DHT22;4919;48.792;9.202;2023-04-03T13:02:17;5.90;1.00
9760;DHT22;4919;48.792;9.202;2023-04-03T13:05:09;6.00;1.00
9760;DHT22;4919;48.792;9.202;2023-04-03T13:08:02;6.10;1.00
9760;DHT22;4919;48.792;9.202;2023-04-03T13:11:11;5.90;1.00
9760;DHT22;4919;48.792;9.202;2023-04-03T13:14:01;5.90;1.00
9760;DHT22;4919;48.792;9.202;2023-04-03T13:17:13;5.80;1.00
9760;DHT22;4919;48.792;9.202;2023-04-03T13:20:21;5.70;1.00
9760;DHT22;4919;48.792;9.202;2023-04-03T13:23:07;5.70;1.00
9760;DHT22;4919;48.792;9.202;2023-04-03T13:25:53;5.80;1.00
9760;DHT22;4919;48.792;9.202;2023-04-03T13:28:39;5.80;1.00
9760;DHT22;4919;48.792;9.202;2023-04-03T13:31:30;6.00;1.00
9760;DHT22;4919;48.792;9.202;2023-04-03T13:34:20;6.20;1.00
9760;DHT22;4919;48.792;9.202;2023-04-03T13:37:05;6.10;1.00
9760;DHT22;4919;48.792;9.202;2023-04-03T13:43:18;6.10;1.00
9760;DHT22;4919;48.792;9.202;2023-04-03T13:48:55;6.10;1.00
9760;DHT22;4919;48.792;9.202;2023-04-03T13:51:39;6.20;1.00
9760;DHT22;4919;48.792;9.202;2023-04-03T13:54:32;5.90;1.00
9760;DHT22;4919;48.792;9.202;2023-04-03T13:57:17;5.90;1.00
9760;DHT22;4919;48.792;9.202;2023-04-03T14:00:47;5.70;1.00
9760;DHT22;4919;48.792;9.202;2023-04-03T14:03:30;5.50;1.00
9760;DHT22;4919;48.792;9.202;2023-04-03T14:06:16;5.50;1.00
9760;DHT22;4919;48.792;9.202;2023-04-03T14:09:01;5.20;1.00
9760;DHT22;4919;48.792;9.202;2023-04-03T14:11:48;5.10;1.00
9760;DHT22;4919;48.792;9.202;2023-04-03T14:14:35;5.20;1.00
9760;DHT22;4919;48.792;9.202;2023-04-03T14:17:23;5.10;1.00
9760;DHT22;4919;48.792;9.202;2023-04-03T14:20:21;5.30;1.00
9760;DHT22;4919;48.792;9.202;2023-04-03T14:23:06;5.30;1.00
9760;DHT22;4919;48.792;9.202;2023-04-03T14:25:51;5.30;1.00
9760;DHT22;4919;48.792;9.202;2023-04-03T14:28:36;5.50;1.00
9760;DHT22;4919;48.792;9.202;2023-04-03T14:31:21;5.50;1.00
9760;DHT22;4919;48.792;9.202;2023-04-03T14:34:06;5.60;1.00
9760;DHT22;4919;48.792;9.202;2023-04-03T14:36:51;5.60;1.00
9760;DHT22;4919;48.792;9.202;2023-04-03T14:39:36;5.70;1.00
9760;DHT22;4919;48.792;9.202;2023-04-03T14:42:24;5.70;1.00
9760;DHT22;4919;48.792;9.202;2023-04-03T14:45:11;6.00;1.00
9760;DHT22;4919;48.792;9.202;2023-04-03T14:47:57;5.80;1.00
9760;DHT22;4919;48.792;9.202;2023-04-03T14:50:43;5.80;1.00
9760;DHT22;4919;48.792;9.202;2023-04-03T14:53:28;5.70;1.00
9760;DHT22;4919;48.792;9.202;2023-04-03T14:56:23;5.80;1.00
9760;DHT22;4919;48.792;9.202;2023-04-03T14:59:11;5.90;1.00
9760;DHT22;4919;48.792;9.202;2023-04-03T15:01:56;5.90;1.00
9760;DHT22;4919;48.792;9.202;2023-04-03T15:04:41;5.90;1.00
9760;DHT22;4919;48.792;9.202;2023-04-03T15:07:33;5.80;1.00
9760;DHT22;4919;48.792;9.202;2023-04-03T15:10:27;5.60;1.00
9760;DHT22;4919;48.792;9.202;2023-04-03T15:13:12;5.60;1.00
9760;DHT22;4919;48.792;9.202;2023-04-03T15:15:57;5.50;1.00
9760;DHT22;4919;48.792;9.202;2023-04-03T15:18:42;5.40;1.00
9760;DHT22;4919;48.792;9.202;2023-04-03T15:21:27;5.30;1.00
9760;DHT22;4919;48.792;9.202;2023-04-03T15:24:12;5.20;1.00
9760;DHT22;4919;48.792;9.202;2023-04-03T15:26:58;5.10;1.00
9760;DHT22;4919;48.792;9.202;2023-04-03T15:29:45;5.10;1.00
9760;DHT22;4919;48.792;9.202;2023-04-03T15:32:30;5.00;1.00
9760;DHT22;4919;48.792;9.202;2023-04-03T15:35:14;4.90;1.00
9760;DHT22;4919;48.792;9.202;2023-04-03T15:37:59;4.90;1.00
9760;DHT22;4919;48.792;9.202;2023-04-03T15:40:44;4.80;1.00
9760;DHT22;4919;48.792;9.202;2023-04-03T15:43:29;4.70;1.00
9760;DHT22;4919;48.792;9.202;2023-04-03T15:46:14;4.60;1.00
9760;DHT22;4919;48.792;9.202;2023-04-03T15:48:59;4.60;1.00
9760;DHT22;4919;48.792;9.202;2023-04-03T15:51:45;4.70;1.00
9760;DHT22;4919;48.792;9.202;2023-04-03T15:54:30;4.70;1.00
9760;DHT22;4919;48.792;9.202;2023-04-03T15:57:15;4.70;1.00
9760;DHT22;4919;48.792;9.202;2023-04-03T15:59:59;4.60;1.00
9760;DHT22;4919;48.792;9.202;2023-04-03T16:02:46;4.60;1.00
9760;DHT22;4919;48.792;9.202;2023-04-03T16:05:32;4.60;1.00
9760;DHT22;4919;48.792;9.202;2023-04-03T16:08:17;4.60;1.00
9760;DHT22;4919;48.792;9.202;2023-04-03T16:11:02;4.70;1.00
9760;DHT22;4919;48.792;9.202;2023-04-03T16:13:47;4.70;1.00
9760;DHT22;4919;48.792;9.202;2023-04-03T16:16:32;4.70;1.00
9760;DHT22;4919;48.792;9.202;2023-04-03T16:19:17;4.70;1.00
9760;DHT22;4919;48.792;9.202;2023-04-03T16:22:02;4.50;1.00
9760;DHT22;4919;48.792;9.202;2023-04-03T16:24:47;4.40;1.00
9760;DHT22;4919;48.792;9.202;2023-04-03T16:27:31;4.40;1.00
9760;DHT22;4919;48.792;9.202;2023-04-03T16:30:16;4.40;1.00
9760;DHT22;4919;48.792;9.202;2023-04-03T16:33:01;4.40;1.00
9760;DHT22;4919;48.792;9.202;2023-04-03T16:35:47;4.40;1.00
9760;DHT22;4919;48.792;9.202;2023-04-03T16:38:31;4.60;1.00
9760;DHT22;4919;48.792;9.202;2023-04-03T16:41:16;4.60;1.00
9760;DHT22;4919;48.792;9.202;2023-04-03T16:44:01;4.70;1.00
9760;DHT22;4919;48.792;9.202;2023-04-03T16:46:46;4.70;1.00
9760;DHT22;4919;48.792;9.202;2023-04-03T16:49:31;4.70;1.00
9760;DHT22;4919;48.792;9.202;2023-04-03T16:52:16;4.60;1.00
9760;DHT22;4919;48.792;9.202;2023-04-03T16:55:01;4.60;1.00
9760;DHT22;4919;48.792;9.202;2023-04-03T16:57:46;4.50;1.00
9760;DHT22;4919;48.792;9.202;2023-04-03T17:00:31;4.50;1.00
9760;DHT22;4919;48.792;9.202;2023-04-03T17:03:15;4.50;1.00
9760;DHT22;4919;48.792;9.202;2023-04-03T17:06:00;4.50;1.00
9760;DHT22;4919;48.792;9.202;2023-04-03T17:08:47;4.40;1.00
9760;DHT22;4919;48.792;9.202;2023-04-03T17:11:33;4.40;1.00
9760;DHT22;4919;48.792;9.202;2023-04-03T17:14:17;4.40;1.00
9760;DHT22;4919;48.792;9.202;2023-04-03T17:17:03;4.40;1.00
9760;DHT22;4919;48.792;9.202;2023-04-03T17:19:47;4.30;1.00
9760;DHT22;4919;48.792;9.202;2023-04-03T17:22:32;4.30;1.00
9760;DHT22;4919;48.792;9.202;2023-04-03T17:25:17;4.30;1.00
9760;DHT22;4919;48.792;9.202;2023-04-03T17:28:02;4.30;1.00
9760;DHT22;4919;48.792;9.202;2023-04-03T17:30:47;4.30;1.00
9760;DHT22;4919;48.792;9.202;2023-04-03T17:33:32;4.20;1.00
9760;DHT22;4919;48.792;9.202;2023-04-03T17:36:17;4.20;1.00
9760;DHT22;4919;48.792;9.202;2023-04-03T17:39:02;4.10;1.00
9760;DHT22;4919;48.792;9.202;2023-04-03T17:41:46;4.20;1.00
9760;DHT22;4919;48.792;9.202;2023-04-03T17:44:31;4.10;1.00
9760;DHT22;4919;48.792;9.202;2023-04-03T17:47:16;4.10;1.00
9760;DHT22;4919;48.792;9.202;2023-04-03T17:50:01;4.10;1.00
9760;DHT22;4919;48.792;9.202;2023-04-03T17:52:46;4.10;1.00
9760;DHT22;4919;48.792;9.202;2023-04-03T17:55:31;4.10;1.00
9760;DHT22;4919;48.792;9.202;2023-04-03T17:58:16;4.00;1.00
9760;DHT22;4919;48.792;9.202;2023-04-03T18:01:19;4.00;1.00
9760;DHT22;4919;48.792;9.202;2023-04-03T18:04:05;4.00;1.00
9760;DHT22;4919;48.792;9.202;2023-04-03T18:06:51;4.00;1.00
9760;DHT22;4919;48.792;9.202;2023-04-03T18:09:36;3.90;1.00
9760;DHT22;4919;48.792;9.202;2023-04-03T18:12:22;4.00;1.00
9760;DHT22;4919;48.792;9.202;2023-04-03T18:15:07;3.90;1.00
9760;DHT22;4919;48.792;9.202;2023-04-03T18:17:52;3.90;1.00
9760;DHT22;4919;48.792;9.202;2023-04-03T18:20:37;3.90;1.00
9760;DHT22;4919;48.792;9.202;2023-04-03T18:23:23;3.90;1.00
9760;DHT22;4919;48.792;9.202;2023-04-03T18:26:09;3.90;1.00
9760;DHT22;4919;48.792;9.202;2023-04-03T18:29:01;3.80;1.00
9760;DHT22;4919;48.792;9.202;2023-04-03T18:31:50;3.80;1.00
9760;DHT22;4919;48.792;9.202;2023-04-03T18:34:35;3.80;1.00
9760;DHT22;4919;48.792;9.202;2023-04-03T18:37:20;3.70;1.00
9760;DHT22;4919;48.792;9.202;2023-04-03T18:40:05;3.70;1.00
9760;DHT22;4919;48.792;9.202;2023-04-03T18:42:50;3.70;1.00
9760;DHT22;4919;48.792;9.202;2023-04-03T18:45:35;3.70;1.00
9760;DHT22;4919;48.792;9.202;2023-04-03T18:48:20;3.70;1.00
9760;DHT22;4919;48.792;9.202;2023-04-03T18:51:09;3.70;1.00
9760;DHT22;4919;48.792;9.202;2023-04-03T18:53:54;3.60;1.00
9760;DHT22;4919;48.792;9.202;2023-04-03T18:56:38;3.50;1.00
9760;DHT22;4919;48.792;9.202;2023-04-03T18:59:23;3.50;1.00
9760;DHT22;4919;48.792;9.202;2023-04-03T19:02:08;3.50;1.00
9760;DHT22;4919;48.792;9.202;2023-04-03T19:04:53;3.50;1.00
9760;DHT22;4919;48.792;9.202;2023-04-03T19:07:38;3.40;1.00
9760;DHT22;4919;48.792;9.202;2023-04-03T19:10:23;3.30;1.00
9760;DHT22;4919;48.792;9.202;2023-04-03T19:13:08;3.20;1.00
9760;DHT22;4919;48.792;9.202;2023-04-03T19:15:53;3.20;1.00
9760;DHT22;4919;48.792;9.202;2023-04-03T19:18:38;3.20;1.00
9760;DHT22;4919;48.792;9.202;2023-04-03T19:21:23;3.10;1.00
9760;DHT22;4919;48.792;9.202;2023-04-03T19:24:09;3.10;1.00
9760;DHT22;4919;48.792;9.202;2023-04-03T19:26:55;3.00;1.00
9760;DHT22;4919;48.792;9.202;2023-04-03T19:29:40;3.00;1.00
9760;DHT22;4919;48.792;9.202;2023-04-03T19:32:25;2.90;1.00
9760;DHT22;4919;48.792;9.202;2023-04-03T19:35:10;2.90;1.00
9760;DHT22;4919;48.792;9.202;2023-04-03T19:37:55;2.80;1.00
9760;DHT22;4919;48.792;9.202;2023-04-03T19:40:40;2.90;1.00
9760;DHT22;4919;48.792;9.202;2023-04-03T19:43:25;2.90;1.00